sensor_id;sensor_type;location;lat;lon;timestamp;temperature;humidity
19734;DHT22;10018;51.230;7.860;2022-10-17T00:00:40;12.40;99.90
19734;DHT22;10018;51.230;7.860;2022-10-17T00:03:06;12.50;99.90
19734;DHT22;10018;51.230;7.860;2022-10-17T00:05:31;12.40;99.90
19734;DHT22;10018;51.230;7.860;2022-10-17T00:07:57;12.50;99.90
19734;DHT22;10018;51.230;7.860;2022-10-17T00:10:22;12.50;99.90
19734;DHT22;10018;51.230;7.860;2022-10-17T00:12:50;12.50;99.90
19734;DHT22;10018;51.230;7.860;2022-10-17T00:15:17;12.50;99.90
19734;DHT22;10018;51.230;7.860;2022-10-17T00:17:43;12.70;99.90
19734;DHT22;10018;51.230;7.860;2022-10-17T00:20:09;12.70;99.90
19734;DHT22;10018;51.230;7.860;2022-10-17T00:22:34;12.70;99.90
19734;DHT22;10018;51.230;7.860;2022-10-17T00:25:00;13.00;99.90
19734;DHT22;10018;51.230;7.860;2022-10-17T00:27:25;13.10;99.90
19734;DHT22;10018;51.230;7.860;2022-10-17T00:29:51;13.30;99.90
19734;DHT22;10018;51.230;7.860;2022-10-17T00:32:18;13.40;99.90
19734;DHT22;10018;51.230;7.860;2022-10-17T00:34:43;13.40;99.90
19734;DHT22;10018;51.230;7.860;2022-10-17T00:37:09;13.80;99.90
19734;DHT22;10018;51.230;7.860;2022-10-17T00:39:35;14.00;99.90
19734;DHT22;10018;51.230;7.860;2022-10-17T00:42:00;14.30;99.90
19734;DHT22;10018;51.230;7.860;2022-10-17T00:47:02;14.20;99.90
19734;DHT22;10018;51.230;7.860;2022-10-17T00:49:32;14.00;99.90
19734;DHT22;10018;51.230;7.860;2022-10-17T00:52:02;13.90;99.90
19734;DHT22;10018;51.230;7.860;2022-10-17T00:54:35;13.70;99.90
19734;DHT22;10018;51.230;7.860;2022-10-17T00:57:02;13.60;99.90
19734;DHT22;10018;51.230;7.860;2022-10-17T00:59:29;13.50;99.90
19734;DHT22;10018;51.230;7.860;2022-10-17T01:02:19;13.40;99.90
19734;DHT22;10018;51.230;7.860;2022-10-17T01:04:47;13.40;99.90
19734;DHT22;10018;51.230;7.860;2022-10-17T01:07:14;13.30;99.90
19734;DHT22;10018;51.230;7.860;2022-10-17T01:09:40;13.30;99.90
19734;DHT22;10018;51.230;7.860;2022-10-17T01:12:14;13.30;99.90
19734;DHT22;10018;51.230;7.860;2022-10-17T01:17:27;13.30;99.90
19734;DHT22;10018;51.230;7.860;2022-10-17T01:23:23;13.40;99.90
19734;DHT22;10018;51.230;7.860;2022-10-17T01:25:55;13.30;99.90
19734;DHT22;10018;51.230;7.860;2022-10-17T01:30:58;13.40;99.90
19734;DHT22;10018;51.230;7.860;2022-10-17T01:33:47;13.40;99.90
19734;DHT22;10018;51.230;7.860;2022-10-17T01:36:34;13.40;99.90
19734;DHT22;10018;51.230;7.860;2022-10-17T01:39:22;13.40;99.90
19734;DHT22;10018;51.230;7.860;2022-10-17T01:42:12;13.40;99.90
19734;DHT22;10018;51.230;7.860;2022-10-17T01:44:51;13.30;99.90
19734;DHT22;10018;51.230;7.860;2022-10-17T01:47:24;13.30;99.90
19734;DHT22;10018;51.230;7.860;2022-10-17T01:49:53;13.40;99.90
19734;DHT22;10018;51.230;7.860;2022-10-17T01:52:45;13.40;99.90
19734;DHT22;10018;51.230;7.860;2022-10-17T01:55:22;13.40;99.90
19734;DHT22;10018;51.230;7.860;2022-10-17T01:57:53;13.40;99.90
19734;DHT22;10018;51.230;7.860;2022-10-17T02:00:24;13.40;99.90
19734;DHT22;10018;51.230;7.860;2022-10-17T02:02:58;13.40;99.90
19734;DHT22;10018;51.230;7.860;2022-10-17T02:05:28;13.40;99.90
19734;DHT22;10018;51.230;7.860;2022-10-17T02:07:55;13.40;99.90
19734;DHT22;10018;51.230;7.860;2022-10-17T02:13:36;13.40;99.90
19734;DHT22;10018;51.230;7.860;2022-10-17T02:16:07;13.40;99.90
19734;DHT22;10018;51.230;7.860;2022-10-17T02:18:55;13.70;99.90
19734;DHT22;10018;51.230;7.860;2022-10-17T02:24:11;14.20;99.90
19734;DHT22;10018;51.230;7.860;2022-10-17T02:26:52;14.30;99.90
19734;DHT22;10018;51.230;7.860;2022-10-17T02:29:25;14.50;99.90
19734;DHT22;10018;51.230;7.860;2022-10-17T02:32:00;14.50;99.90
19734;DHT22;10018;51.230;7.860;2022-10-17T02:34:40;14.60;99.90
19734;DHT22;10018;51.230;7.860;2022-10-17T02:37:09;14.60;99.90
19734;DHT22;10018;51.230;7.860;2022-10-17T02:39:36;14.60;99.90
19734;DHT22;10018;51.230;7.860;2022-10-17T02:42:07;14.60;99.90
19734;DHT22;10018;51.230;7.860;2022-10-17T02:44:36;14.50;99.90
19734;DHT22;10018;51.230;7.860;2022-10-17T02:49:55;14.70;99.90
19734;DHT22;10018;51.230;7.860;2022-10-17T02:52:27;14.60;99.90
19734;DHT22;10018;51.230;7.860;2022-10-17T02:54:58;14.70;99.90
19734;DHT22;10018;51.230;7.860;2022-10-17T02:57:34;14.70;99.90
19734;DHT22;10018;51.230;7.860;2022-10-17T03:00:04;14.70;99.90
19734;DHT22;10018;51.230;7.860;2022-10-17T03:02:48;14.60;99.90
19734;DHT22;10018;51.230;7.860;2022-10-17T03:05:38;14.60;99.90
19734;DHT22;10018;51.230;7.860;2022-10-17T03:08:02;14.50;99.90
19734;DHT22;10018;51.230;7.860;2022-10-17T03:10:28;14.40;99.90
19734;DHT22;10018;51.230;7.860;2022-10-17T03:12:53;14.30;99.90
19734;DHT22;10018;51.230;7.860;2022-10-17T03:15:20;14.20;99.90
19734;DHT22;10018;51.230;7.860;2022-10-17T03:17:45;14.20;99.90
19734;DHT22;10018;51.230;7.860;2022-10-17T03:20:11;14.10;99.90
19734;DHT22;10018;51.230;7.860;2022-10-17T03:22:36;14.10;99.90
19734;DHT22;10018;51.230;7.860;2022-10-17T03:25:02;14.00;99.90
19734;DHT22;10018;51.230;7.860;2022-10-17T03:27:27;14.00;99.90
19734;DHT22;10018;51.230;7.860;2022-10-17T03:29:53;13.90;99.90
19734;DHT22;10018;51.230;7.860;2022-10-17T03:32:18;13.90;99.90
19734;DHT22;10018;51.230;7.860;2022-10-17T03:34:44;13.90;99.90
19734;DHT22;10018;51.230;7.860;2022-10-17T03:37:09;13.90;99.90
19734;DHT22;10018;51.230;7.860;2022-10-17T03:39:35;13.90;99.90
19734;DHT22;10018;51.230;7.860;2022-10-17T03:42:00;14.00;99.90
19734;DHT22;10018;51.230;7.860;2022-10-17T03:44:26;14.10;99.90
19734;DHT22;10018;51.230;7.860;2022-10-17T03:46:51;14.10;99.90
19734;DHT22;10018;51.230;7.860;2022-10-17T03:49:16;14.10;99.90
19734;DHT22;10018;51.230;7.860;2022-10-17T03:51:42;14.10;99.90
19734;DHT22;10018;51.230;7.860;2022-10-17T03:54:07;14.00;99.90
19734;DHT22;10018;51.230;7.860;2022-10-17T03:56:33;14.00;99.90
19734;DHT22;10018;51.230;7.860;2022-10-17T03:58:58;14.00;99.90
19734;DHT22;10018;51.230;7.860;2022-10-17T04:01:24;14.00;99.90
19734;DHT22;10018;51.230;7.860;2022-10-17T04:03:54;14.10;99.90
19734;DHT22;10018;51.230;7.860;2022-10-17T04:06:21;14.10;99.90
19734;DHT22;10018;51.230;7.860;2022-10-17T04:08:47;14.10;99.90
19734;DHT22;10018;51.230;7.860;2022-10-17T04:11:16;14.10;99.90
19734;DHT22;10018;51.230;7.860;2022-10-17T04:13:43;14.00;99.90
19734;DHT22;10018;51.230;7.860;2022-10-17T04:16:14;14.00;99.90
19734;DHT22;10018;51.230;7.860;2022-10-17T04:18:40;14.10;99.90
19734;DHT22;10018;51.230;7.860;2022-10-17T04:21:06;14.10;99.90
19734;DHT22;10018;51.230;7.860;2022-10-17T04:23:31;14.00;99.90
19734;DHT22;10018;51.230;7.860;2022-10-17T04:25:58;14.00;99.90
19734;DHT22;10018;51.230;7.860;2022-10-17T04:28:25;13.90;99.90
19734;DHT22;10018;51.230;7.860;2022-10-17T04:31:06;13.90;99.90
19734;DHT22;10018;51.230;7.860;2022-10-17T04:33:32;13.90;99.90
19734;DHT22;10018;51.230;7.860;2022-10-17T04:36:12;13.90;99.90
19734;DHT22;10018;51.230;7.860;2022-10-17T04:38:38;14.00;99.90
19734;DHT22;10018;51.230;7.860;2022-10-17T04:41:05;14.00;99.90
19734;DHT22;10018;51.230;7.860;2022-10-17T04:43:33;14.00;99.90
19734;DHT22;10018;51.230;7.860;2022-10-17T04:46:00;14.00;99.90
19734;DHT22;10018;51.230;7.860;2022-10-17T04:48:27;14.10;99.90
19734;DHT22;10018;51.230;7.860;2022-10-17T04:50:58;14.10;99.90
19734;DHT22;10018;51.230;7.860;2022-10-17T04:53:24;14.00;99.90
19734;DHT22;10018;51.230;7.860;2022-10-17T04:55:50;14.00;99.90
19734;DHT22;10018;51.230;7.860;2022-10-17T04:58:16;13.90;99.90
19734;DHT22;10018;51.230;7.860;2022-10-17T05:00:42;13.90;99.90
19734;DHT22;10018;51.230;7.860;2022-10-17T05:03:08;13.90;99.90
19734;DHT22;10018;51.230;7.860;2022-10-17T05:05:36;13.90;99.90
19734;DHT22;10018;51.230;7.860;2022-10-17T05:08:03;13.80;99.90
19734;DHT22;10018;51.230;7.860;2022-10-17T05:10:29;13.90;99.90
19734;DHT22;10018;51.230;7.860;2022-10-17T05:12:54;13.90;99.90
19734;DHT22;10018;51.230;7.860;2022-10-17T05:15:20;13.90;99.90
19734;DHT22;10018;51.230;7.860;2022-10-17T05:17:45;13.80;99.90
19734;DHT22;10018;51.230;7.860;2022-10-17T05:20:11;13.80;99.90
19734;DHT22;10018;51.230;7.860;2022-10-17T05:22:36;13.80;99.90
19734;DHT22;10018;51.230;7.860;2022-10-17T05:25:02;13.70;99.90
19734;DHT22;10018;51.230;7.860;2022-10-17T05:27:28;13.70;99.90
19734;DHT22;10018;51.230;7.860;2022-10-17T05:29:53;13.60;99.90
19734;DHT22;10018;51.230;7.860;2022-10-17T05:32:19;13.60;99.90
19734;DHT22;10018;51.230;7.860;2022-10-17T05:34:44;13.50;99.90
19734;DHT22;10018;51.230;7.860;2022-10-17T05:37:10;13.50;99.90
19734;DHT22;10018;51.230;7.860;2022-10-17T05:39:35;13.40;99.90
19734;DHT22;10018;51.230;7.860;2022-10-17T05:42:01;13.50;99.90
19734;DHT22;10018;51.230;7.860;2022-10-17T05:44:26;13.50;99.90
19734;DHT22;10018;51.230;7.860;2022-10-17T05:46:52;13.60;99.90
19734;DHT22;10018;51.230;7.860;2022-10-17T05:49:17;13.60;99.90
19734;DHT22;10018;51.230;7.860;2022-10-17T05:51:43;13.80;99.90
19734;DHT22;10018;51.230;7.860;2022-10-17T05:54:08;13.90;99.90
19734;DHT22;10018;51.230;7.860;2022-10-17T05:56:34;14.20;99.90
19734;DHT22;10018;51.230;7.860;2022-10-17T05:59:00;14.70;99.90
19734;DHT22;10018;51.230;7.860;2022-10-17T06:01:26;14.80;99.90
19734;DHT22;10018;51.230;7.860;2022-10-17T06:03:51;14.70;99.90
19734;DHT22;10018;51.230;7.860;2022-10-17T06:06:17;14.50;99.90
19734;DHT22;10018;51.230;7.860;2022-10-17T06:08:43;14.40;99.90
19734;DHT22;10018;51.230;7.860;2022-10-17T06:11:10;14.20;99.90
19734;DHT22;10018;51.230;7.860;2022-10-17T06:13:35;14.20;99.90
19734;DHT22;10018;51.230;7.860;2022-10-17T06:16:01;14.10;99.90
19734;DHT22;10018;51.230;7.860;2022-10-17T06:18:26;14.00;99.90
19734;DHT22;10018;51.230;7.860;2022-10-17T06:20:52;13.90;99.90
19734;DHT22;10018;51.230;7.860;2022-10-17T06:23:17;14.00;99.90
19734;DHT22;10018;51.230;7.860;2022-10-17T06:25:43;14.00;99.90
19734;DHT22;10018;51.230;7.860;2022-10-17T06:28:09;13.90;99.90
19734;DHT22;10018;51.230;7.860;2022-10-17T06:30:38;14.00;99.90
19734;DHT22;10018;51.230;7.860;2022-10-17T06:33:03;14.00;99.90
19734;DHT22;10018;51.230;7.860;2022-10-17T06:35:30;14.00;99.90
19734;DHT22;10018;51.230;7.860;2022-10-17T06:37:55;14.00;99.90
19734;DHT22;10018;51.230;7.860;2022-10-17T06:40:21;14.00;99.90
19734;DHT22;10018;51.230;7.860;2022-10-17T06:42:46;14.00;99.90
19734;DHT22;10018;51.230;7.860;2022-10-17T06:45:12;14.00;99.90
19734;DHT22;10018;51.230;7.860;2022-10-17T06:47:38;14.00;99.90
19734;DHT22;10018;51.230;7.860;2022-10-17T06:50:04;13.90;99.90
19734;DHT22;10018;51.230;7.860;2022-10-17T06:52:29;14.00;99.90
19734;DHT22;10018;51.230;7.860;2022-10-17T06:54:55;14.00;99.90
19734;DHT22;10018;51.230;7.860;2022-10-17T06:57:20;14.00;99.90
19734;DHT22;10018;51.230;7.860;2022-10-17T06:59:47;14.00;99.90
19734;DHT22;10018;51.230;7.860;2022-10-17T07:02:12;14.00;99.90
19734;DHT22;10018;51.230;7.860;2022-10-17T07:04:38;14.00;99.90
19734;DHT22;10018;51.230;7.860;2022-10-17T07:07:03;14.10;99.90
19734;DHT22;10018;51.230;7.860;2022-10-17T07:09:30;14.10;99.90
19734;DHT22;10018;51.230;7.860;2022-10-17T07:11:55;14.10;99.90
19734;DHT22;10018;51.230;7.860;2022-10-17T07:14:21;14.10;99.90
19734;DHT22;10018;51.230;7.860;2022-10-17T07:16:47;14.20;99.90
19734;DHT22;10018;51.230;7.860;2022-10-17T07:19:13;14.20;99.90
19734;DHT22;10018;51.230;7.860;2022-10-17T07:21:38;14.30;99.90
19734;DHT22;10018;51.230;7.860;2022-10-17T07:24:04;14.30;99.90
19734;DHT22;10018;51.230;7.860;2022-10-17T07:26:31;14.40;99.90
19734;DHT22;10018;51.230;7.860;2022-10-17T07:28:57;14.40;99.90
19734;DHT22;10018;51.230;7.860;2022-10-17T07:31:23;14.50;99.90
19734;DHT22;10018;51.230;7.860;2022-10-17T07:33:49;14.60;99.90
19734;DHT22;10018;51.230;7.860;2022-10-17T07:36:15;14.70;99.90
19734;DHT22;10018;51.230;7.860;2022-10-17T07:38:41;14.80;99.90
19734;DHT22;10018;51.230;7.860;2022-10-17T07:41:08;14.90;99.90
19734;DHT22;10018;51.230;7.860;2022-10-17T07:43:35;15.00;99.90
19734;DHT22;10018;51.230;7.860;2022-10-17T07:46:02;15.10;99.90
19734;DHT22;10018;51.230;7.860;2022-10-17T07:48:28;15.20;99.90
19734;DHT22;10018;51.230;7.860;2022-10-17T07:50:53;15.40;99.90
19734;DHT22;10018;51.230;7.860;2022-10-17T07:53:19;15.40;99.90
19734;DHT22;10018;51.230;7.860;2022-10-17T07:55:44;15.50;99.90
19734;DHT22;10018;51.230;7.860;2022-10-17T07:58:11;15.70;99.90
19734;DHT22;10018;51.230;7.860;2022-10-17T08:00:37;15.80;99.90
19734;DHT22;10018;51.230;7.860;2022-10-17T08:03:03;15.90;99.90
19734;DHT22;10018;51.230;7.860;2022-10-17T08:05:29;16.00;99.90
19734;DHT22;10018;51.230;7.860;2022-10-17T08:07:55;16.10;99.90
19734;DHT22;10018;51.230;7.860;2022-10-17T08:10:21;16.20;99.90
19734;DHT22;10018;51.230;7.860;2022-10-17T08:12:52;16.30;99.90
19734;DHT22;10018;51.230;7.860;2022-10-17T08:15:18;16.40;99.90
19734;DHT22;10018;51.230;7.860;2022-10-17T08:17:44;16.50;99.90
19734;DHT22;10018;51.230;7.860;2022-10-17T08:20:10;16.80;99.90
19734;DHT22;10018;51.230;7.860;2022-10-17T08:22:35;17.00;99.90
19734;DHT22;10018;51.230;7.860;2022-10-17T08:25:01;17.10;99.90
19734;DHT22;10018;51.230;7.860;2022-10-17T08:27:26;17.20;99.90
19734;DHT22;10018;51.230;7.860;2022-10-17T08:29:53;17.50;99.90
19734;DHT22;10018;51.230;7.860;2022-10-17T08:32:20;17.70;99.90
19734;DHT22;10018;51.230;7.860;2022-10-17T08:34:46;17.90;99.90
19734;DHT22;10018;51.230;7.860;2022-10-17T08:37:12;18.10;99.90
19734;DHT22;10018;51.230;7.860;2022-10-17T08:39:39;18.20;99.90
19734;DHT22;10018;51.230;7.860;2022-10-17T08:42:13;18.30;99.90
19734;DHT22;10018;51.230;7.860;2022-10-17T08:47:33;18.50;99.90
19734;DHT22;10018;51.230;7.860;2022-10-17T08:50:02;18.50;99.90
19734;DHT22;10018;51.230;7.860;2022-10-17T08:52:40;18.60;99.90
19734;DHT22;10018;51.230;7.860;2022-10-17T08:55:21;18.70;99.90
19734;DHT22;10018;51.230;7.860;2022-10-17T08:57:51;18.80;99.90
19734;DHT22;10018;51.230;7.860;2022-10-17T09:00:19;18.90;99.90
19734;DHT22;10018;51.230;7.860;2022-10-17T09:08:09;19.10;99.90
19734;DHT22;10018;51.230;7.860;2022-10-17T09:10:56;19.10;99.90
19734;DHT22;10018;51.230;7.860;2022-10-17T09:13:52;19.20;99.90
19734;DHT22;10018;51.230;7.860;2022-10-17T09:16:39;19.20;99.90
19734;DHT22;10018;51.230;7.860;2022-10-17T09:24:25;19.20;99.90
19734;DHT22;10018;51.230;7.860;2022-10-17T09:26:52;19.20;99.90
19734;DHT22;10018;51.230;7.860;2022-10-17T09:29:24;19.20;99.90
19734;DHT22;10018;51.230;7.860;2022-10-17T09:32:00;19.20;99.90
19734;DHT22;10018;51.230;7.860;2022-10-17T09:34:28;19.20;99.90
19734;DHT22;10018;51.230;7.860;2022-10-17T09:36:54;19.30;99.90
19734;DHT22;10018;51.230;7.860;2022-10-17T09:39:22;19.40;99.90
19734;DHT22;10018;51.230;7.860;2022-10-17T09:41:55;19.50;99.90
19734;DHT22;10018;51.230;7.860;2022-10-17T09:44:32;19.60;99.90
19734;DHT22;10018;51.230;7.860;2022-10-17T09:49:36;19.70;99.90
19734;DHT22;10018;51.230;7.860;2022-10-17T09:52:05;19.70;99.90
19734;DHT22;10018;51.230;7.860;2022-10-17T09:54:46;19.80;99.90
19734;DHT22;10018;51.230;7.860;2022-10-17T09:57:14;19.80;99.90
19734;DHT22;10018;51.230;7.860;2022-10-17T09:59:44;19.90;99.90
19734;DHT22;10018;51.230;7.860;2022-10-17T10:02:16;19.90;99.90
19734;DHT22;10018;51.230;7.860;2022-10-17T10:05:03;20.00;99.90
19734;DHT22;10018;51.230;7.860;2022-10-17T10:07:35;20.10;99.90
19734;DHT22;10018;51.230;7.860;2022-10-17T10:10:02;20.10;99.90
19734;DHT22;10018;51.230;7.860;2022-10-17T10:12:31;20.20;99.90
19734;DHT22;10018;51.230;7.860;2022-10-17T10:14:57;20.40;99.90
19734;DHT22;10018;51.230;7.860;2022-10-17T10:20:01;20.30;99.90
19734;DHT22;10018;51.230;7.860;2022-10-17T10:22:27;20.30;99.90
19734;DHT22;10018;51.230;7.860;2022-10-17T10:25:14;20.40;99.90
19734;DHT22;10018;51.230;7.860;2022-10-17T10:27:43;20.50;99.90
19734;DHT22;10018;51.230;7.860;2022-10-17T10:30:23;20.60;99.90
19734;DHT22;10018;51.230;7.860;2022-10-17T10:32:49;20.80;99.90
19734;DHT22;10018;51.230;7.860;2022-10-17T10:35:31;20.90;99.90
19734;DHT22;10018;51.230;7.860;2022-10-17T10:37:57;21.10;99.90
19734;DHT22;10018;51.230;7.860;2022-10-17T10:40:30;21.10;99.90
19734;DHT22;10018;51.230;7.860;2022-10-17T10:42:58;21.20;99.90
19734;DHT22;10018;51.230;7.860;2022-10-17T10:45:27;21.30;99.90
19734;DHT22;10018;51.230;7.860;2022-10-17T10:47:56;21.40;99.90
19734;DHT22;10018;51.230;7.860;2022-10-17T10:50:32;21.50;99.90
19734;DHT22;10018;51.230;7.860;2022-10-17T10:53:21;21.70;99.90
19734;DHT22;10018;51.230;7.860;2022-10-17T10:55:54;21.80;99.90
19734;DHT22;10018;51.230;7.860;2022-10-17T11:06:54;21.70;99.90
19734;DHT22;10018;51.230;7.860;2022-10-17T11:09:29;21.60;99.90
19734;DHT22;10018;51.230;7.860;2022-10-17T11:12:05;21.50;99.90
19734;DHT22;10018;51.230;7.860;2022-10-17T11:14:48;21.40;99.90
19734;DHT22;10018;51.230;7.860;2022-10-17T11:17:19;21.40;99.90
19734;DHT22;10018;51.230;7.860;2022-10-17T11:19:55;21.40;99.90
19734;DHT22;10018;51.230;7.860;2022-10-17T11:22:29;21.40;99.90
19734;DHT22;10018;51.230;7.860;2022-10-17T11:25:05;21.40;99.90
19734;DHT22;10018;51.230;7.860;2022-10-17T11:27:37;21.40;99.90
19734;DHT22;10018;51.230;7.860;2022-10-17T11:30:03;21.30;99.90
19734;DHT22;10018;51.230;7.860;2022-10-17T11:32:51;21.20;99.90
19734;DHT22;10018;51.230;7.860;2022-10-17T11:35:39;21.20;99.90
19734;DHT22;10018;51.230;7.860;2022-10-17T11:38:38;21.30;99.90
19734;DHT22;10018;51.230;7.860;2022-10-17T11:41:09;21.30;99.90
19734;DHT22;10018;51.230;7.860;2022-10-17T11:43:48;21.40;99.90
19734;DHT22;10018;51.230;7.860;2022-10-17T11:46:19;21.50;99.90
19734;DHT22;10018;51.230;7.860;2022-10-17T11:51:23;21.70;99.90
19734;DHT22;10018;51.230;7.860;2022-10-17T11:53:55;22.00;99.90
19734;DHT22;10018;51.230;7.860;2022-10-17T11:56:31;22.20;99.90
19734;DHT22;10018;51.230;7.860;2022-10-17T12:02:03;22.10;99.90
19734;DHT22;10018;51.230;7.860;2022-10-17T12:04:53;21.90;99.90
19734;DHT22;10018;51.230;7.860;2022-10-17T12:07:45;21.90;99.90
19734;DHT22;10018;51.230;7.860;2022-10-17T12:10:32;21.90;99.90
19734;DHT22;10018;51.230;7.860;2022-10-17T12:18:42;21.90;99.90
19734;DHT22;10018;51.230;7.860;2022-10-17T12:21:08;21.80;99.90
19734;DHT22;10018;51.230;7.860;2022-10-17T12:23:34;21.80;99.90
19734;DHT22;10018;51.230;7.860;2022-10-17T12:26:04;21.80;99.90
19734;DHT22;10018;51.230;7.860;2022-10-17T12:28:42;21.70;99.90
19734;DHT22;10018;51.230;7.860;2022-10-17T12:33:50;21.70;99.90
19734;DHT22;10018;51.230;7.860;2022-10-17T12:38:49;21.70;99.90
19734;DHT22;10018;51.230;7.860;2022-10-17T12:41:15;21.80;99.90
19734;DHT22;10018;51.230;7.860;2022-10-17T12:43:51;21.80;99.90
19734;DHT22;10018;51.230;7.860;2022-10-17T12:52:21;21.90;99.90
19734;DHT22;10018;51.230;7.860;2022-10-17T12:54:54;21.80;99.90
19734;DHT22;10018;51.230;7.860;2022-10-17T12:57:29;21.90;99.90
19734;DHT22;10018;51.230;7.860;2022-10-17T12:59:55;21.80;99.90
19734;DHT22;10018;51.230;7.860;2022-10-17T13:02:24;21.90;99.90
19734;DHT22;10018;51.230;7.860;2022-10-17T13:04:57;21.80;99.90
19734;DHT22;10018;51.230;7.860;2022-10-17T13:07:24;21.70;99.90
19734;DHT22;10018;51.230;7.860;2022-10-17T13:09:50;21.70;99.90
19734;DHT22;10018;51.230;7.860;2022-10-17T13:12:24;21.70;99.90
19734;DHT22;10018;51.230;7.860;2022-10-17T13:14:52;21.70;99.90
19734;DHT22;10018;51.230;7.860;2022-10-17T13:17:28;21.70;99.90
19734;DHT22;10018;51.230;7.860;2022-10-17T13:19:56;21.90;99.90
19734;DHT22;10018;51.230;7.860;2022-10-17T13:22:29;22.00;99.90
19734;DHT22;10018;51.230;7.860;2022-10-17T13:25:25;21.90;99.90
19734;DHT22;10018;51.230;7.860;2022-10-17T13:28:02;21.90;99.90
19734;DHT22;10018;51.230;7.860;2022-10-17T13:30:31;22.00;99.90
19734;DHT22;10018;51.230;7.860;2022-10-17T13:32:57;22.00;99.90
19734;DHT22;10018;51.230;7.860;2022-10-17T13:37:54;22.20;99.90
19734;DHT22;10018;51.230;7.860;2022-10-17T13:40:23;22.20;99.90
19734;DHT22;10018;51.230;7.860;2022-10-17T13:42:50;22.10;99.90
19734;DHT22;10018;51.230;7.860;2022-10-17T13:45:21;22.10;99.90
19734;DHT22;10018;51.230;7.860;2022-10-17T13:47:48;22.10;99.90
19734;DHT22;10018;51.230;7.860;2022-10-17T13:50:35;22.10;99.90
19734;DHT22;10018;51.230;7.860;2022-10-17T13:56:00;21.90;99.90
19734;DHT22;10018;51.230;7.860;2022-10-17T14:01:26;21.70;99.90
19734;DHT22;10018;51.230;7.860;2022-10-17T14:03:53;21.60;99.90
19734;DHT22;10018;51.230;7.860;2022-10-17T14:06:21;21.50;99.90
19734;DHT22;10018;51.230;7.860;2022-10-17T14:08:49;21.40;99.90
19734;DHT22;10018;51.230;7.860;2022-10-17T14:11:22;21.50;99.90
19734;DHT22;10018;51.230;7.860;2022-10-17T14:13:50;21.40;99.90
19734;DHT22;10018;51.230;7.860;2022-10-17T14:16:17;21.40;99.90
19734;DHT22;10018;51.230;7.860;2022-10-17T14:18:46;21.30;99.90
19734;DHT22;10018;51.230;7.860;2022-10-17T14:21:22;21.30;99.90
19734;DHT22;10018;51.230;7.860;2022-10-17T14:23:48;21.30;99.90
19734;DHT22;10018;51.230;7.860;2022-10-17T14:26:22;21.10;99.90
19734;DHT22;10018;51.230;7.860;2022-10-17T14:29:19;21.10;99.90
19734;DHT22;10018;51.230;7.860;2022-10-17T14:31:45;21.00;99.90
19734;DHT22;10018;51.230;7.860;2022-10-17T14:34:36;21.00;99.90
19734;DHT22;10018;51.230;7.860;2022-10-17T14:37:11;21.00;99.90
19734;DHT22;10018;51.230;7.860;2022-10-17T14:39:37;21.00;99.90
19734;DHT22;10018;51.230;7.860;2022-10-17T14:42:03;21.00;99.90
19734;DHT22;10018;51.230;7.860;2022-10-17T14:44:32;21.00;99.90
19734;DHT22;10018;51.230;7.860;2022-10-17T14:47:00;21.00;99.90
19734;DHT22;10018;51.230;7.860;2022-10-17T14:49:35;21.10;99.90
19734;DHT22;10018;51.230;7.860;2022-10-17T14:52:21;21.10;99.90
19734;DHT22;10018;51.230;7.860;2022-10-17T14:54:48;21.10;99.90
19734;DHT22;10018;51.230;7.860;2022-10-17T14:59:54;20.90;99.90
19734;DHT22;10018;51.230;7.860;2022-10-17T15:02:20;20.90;99.90
19734;DHT22;10018;51.230;7.860;2022-10-17T15:04:46;20.90;99.90
19734;DHT22;10018;51.230;7.860;2022-10-17T15:07:16;20.90;99.90
19734;DHT22;10018;51.230;7.860;2022-10-17T15:09:42;20.80;99.90
19734;DHT22;10018;51.230;7.860;2022-10-17T15:12:17;20.70;99.90
19734;DHT22;10018;51.230;7.860;2022-10-17T15:14:43;20.80;99.90
19734;DHT22;10018;51.230;7.860;2022-10-17T15:17:12;20.80;99.90
19734;DHT22;10018;51.230;7.860;2022-10-17T15:19:39;20.80;99.90
19734;DHT22;10018;51.230;7.860;2022-10-17T15:22:04;20.80;99.90
19734;DHT22;10018;51.230;7.860;2022-10-17T15:24:29;20.80;99.90
19734;DHT22;10018;51.230;7.860;2022-10-17T15:26:55;20.60;99.90
19734;DHT22;10018;51.230;7.860;2022-10-17T15:29:20;20.60;99.90
19734;DHT22;10018;51.230;7.860;2022-10-17T15:31:46;20.60;99.90
19734;DHT22;10018;51.230;7.860;2022-10-17T15:34:11;20.50;99.90
19734;DHT22;10018;51.230;7.860;2022-10-17T15:36:41;20.50;99.90
19734;DHT22;10018;51.230;7.860;2022-10-17T15:39:12;20.30;99.90
19734;DHT22;10018;51.230;7.860;2022-10-17T15:41:37;20.20;99.90
19734;DHT22;10018;51.230;7.860;2022-10-17T15:44:03;20.20;99.90
19734;DHT22;10018;51.230;7.860;2022-10-17T15:46:32;20.20;99.90
19734;DHT22;10018;51.230;7.860;2022-10-17T15:49:01;20.20;99.90
19734;DHT22;10018;51.230;7.860;2022-10-17T15:51:27;20.10;99.90
19734;DHT22;10018;51.230;7.860;2022-10-17T15:53:52;20.10;99.90
19734;DHT22;10018;51.230;7.860;2022-10-17T15:56:21;20.00;99.90
19734;DHT22;10018;51.230;7.860;2022-10-17T15:58:48;19.90;99.90
19734;DHT22;10018;51.230;7.860;2022-10-17T16:01:32;19.80;99.90
19734;DHT22;10018;51.230;7.860;2022-10-17T16:03:58;19.80;99.90
19734;DHT22;10018;51.230;7.860;2022-10-17T16:06:24;19.60;99.90
19734;DHT22;10018;51.230;7.860;2022-10-17T16:08:50;19.50;99.90
19734;DHT22;10018;51.230;7.860;2022-10-17T16:11:28;19.50;99.90
19734;DHT22;10018;51.230;7.860;2022-10-17T16:13:56;19.40;99.90
19734;DHT22;10018;51.230;7.860;2022-10-17T16:16:23;19.40;99.90
19734;DHT22;10018;51.230;7.860;2022-10-17T16:18:48;19.50;99.90
19734;DHT22;10018;51.230;7.860;2022-10-17T16:21:15;19.60;99.90
19734;DHT22;10018;51.230;7.860;2022-10-17T16:23:41;19.60;99.90
19734;DHT22;10018;51.230;7.860;2022-10-17T16:26:07;19.60;99.90
19734;DHT22;10018;51.230;7.860;2022-10-17T16:28:33;19.60;99.90
19734;DHT22;10018;51.230;7.860;2022-10-17T16:30:59;19.50;99.90
19734;DHT22;10018;51.230;7.860;2022-10-17T16:33:25;19.50;99.90
19734;DHT22;10018;51.230;7.860;2022-10-17T16:35:50;19.40;99.90
19734;DHT22;10018;51.230;7.860;2022-10-17T16:38:16;19.40;99.90
19734;DHT22;10018;51.230;7.860;2022-10-17T16:40:42;19.30;99.90
19734;DHT22;10018;51.230;7.860;2022-10-17T16:43:13;19.30;99.90
19734;DHT22;10018;51.230;7.860;2022-10-17T16:45:39;19.30;99.90
19734;DHT22;10018;51.230;7.860;2022-10-17T16:48:05;19.20;99.90
19734;DHT22;10018;51.230;7.860;2022-10-17T16:50:30;19.20;99.90
19734;DHT22;10018;51.230;7.860;2022-10-17T16:53:00;19.20;99.90
19734;DHT22;10018;51.230;7.860;2022-10-17T16:55:26;19.10;99.90
19734;DHT22;10018;51.230;7.860;2022-10-17T16:57:51;19.00;99.90
19734;DHT22;10018;51.230;7.860;2022-10-17T17:00:17;18.90;99.90
19734;DHT22;10018;51.230;7.860;2022-10-17T17:02:43;18.80;99.90
19734;DHT22;10018;51.230;7.860;2022-10-17T17:05:11;18.80;99.90